sensor_id;sensor_type;location;lat;lon;timestamp;pressure;altitude;pressure_sealevel;temperature;humidity
12471;BME280;36499;46.484;13.832;2022-09-30T00:00:40;92057.66;;;12.07;88.07
12471;BME280;36499;46.484;13.832;2022-09-30T00:03:08;92062.34;;;12.05;88.22
12471;BME280;36499;46.484;13.832;2022-09-30T00:05:35;92071.22;;;12.04;87.85
12471;BME280;36499;46.484;13.832;2022-09-30T00:08:02;92069.09;;;12.01;87.99
12471;BME280;36499;46.484;13.832;2022-09-30T00:10:30;92069.59;;;11.98;88.23
12471;BME280;36499;46.484;13.832;2022-09-30T00:12:57;92071.13;;;11.99;88.32
12471;BME280;36499;46.484;13.832;2022-09-30T00:15:24;92073.53;;;12.00;88.25
12471;BME280;36499;46.484;13.832;2022-09-30T00:17:53;92072.72;;;12.00;88.29
12471;BME280;36499;46.484;13.832;2022-09-30T00:20:20;92073.28;;;12.02;88.62
12471;BME280;36499;46.484;13.832;2022-09-30T00:22:47;92075.94;;;12.07;88.15
12471;BME280;36499;46.484;13.832;2022-09-30T00:25:15;92074.59;;;12.05;88.51
12471;BME280;36499;46.484;13.832;2022-09-30T00:27:43;92071.72;;;12.06;88.40
12471;BME280;36499;46.484;13.832;2022-09-30T00:30:10;92071.44;;;12.02;88.03
12471;BME280;36499;46.484;13.832;2022-09-30T00:32:37;92068.81;;;12.02;88.40
12471;BME280;36499;46.484;13.832;2022-09-30T00:35:05;92074.06;;;12.02;88.16
12471;BME280;36499;46.484;13.832;2022-09-30T00:37:33;92079.03;;;12.04;88.40
12471;BME280;36499;46.484;13.832;2022-09-30T00:40:00;92078.00;;;12.05;88.69
12471;BME280;36499;46.484;13.832;2022-09-30T00:42:27;92073.88;;;12.09;88.34
12471;BME280;36499;46.484;13.832;2022-09-30T00:45:04;92086.69;;;12.11;88.46
12471;BME280;36499;46.484;13.832;2022-09-30T00:47:41;92081.22;;;12.12;88.51
12471;BME280;36499;46.484;13.832;2022-09-30T00:50:19;92082.97;;;12.33;87.42
12471;BME280;36499;46.484;13.832;2022-09-30T00:52:54;92080.38;;;12.33;87.22
12471;BME280;36499;46.484;13.832;2022-09-30T00:55:33;92081.94;;;12.34;87.20
12471;BME280;36499;46.484;13.832;2022-09-30T00:58:04;92075.13;;;12.33;87.10
12471;BME280;36499;46.484;13.832;2022-09-30T01:00:35;92070.69;;;12.34;87.13
12471;BME280;36499;46.484;13.832;2022-09-30T01:03:04;92071.56;;;12.44;86.81
12471;BME280;36499;46.484;13.832;2022-09-30T01:05:34;92064.75;;;12.38;86.85
12471;BME280;36499;46.484;13.832;2022-09-30T01:08:05;92062.56;;;12.30;87.30
12471;BME280;36499;46.484;13.832;2022-09-30T01:10:34;92060.53;;;12.37;86.84
12471;BME280;36499;46.484;13.832;2022-09-30T01:13:01;92056.44;;;12.46;86.46
12471;BME280;36499;46.484;13.832;2022-09-30T01:15:45;92059.06;;;12.46;86.26
12471;BME280;36499;46.484;13.832;2022-09-30T01:18:26;92054.34;;;12.48;85.79
12471;BME280;36499;46.484;13.832;2022-09-30T01:24:52;92050.66;;;12.44;86.24
12471;BME280;36499;46.484;13.832;2022-09-30T01:27:47;92052.81;;;12.52;86.14
12471;BME280;36499;46.484;13.832;2022-09-30T01:30:21;92043.09;;;12.48;86.40
12471;BME280;36499;46.484;13.832;2022-09-30T01:33:03;92052.81;;;12.47;86.41
12471;BME280;36499;46.484;13.832;2022-09-30T01:35:54;92059.34;;;12.50;86.28
12471;BME280;36499;46.484;13.832;2022-09-30T01:38:29;92063.28;;;12.52;85.66
12471;BME280;36499;46.484;13.832;2022-09-30T01:41:09;92058.06;;;12.52;86.23
12471;BME280;36499;46.484;13.832;2022-09-30T01:43:48;92070.03;;;12.48;86.28
12471;BME280;36499;46.484;13.832;2022-09-30T01:46:28;92066.16;;;12.51;86.11
12471;BME280;36499;46.484;13.832;2022-09-30T01:49:10;92062.97;;;12.44;86.92
12471;BME280;36499;46.484;13.832;2022-09-30T01:51:49;92068.22;;;12.49;85.98
12471;BME280;36499;46.484;13.832;2022-09-30T01:54:25;92086.28;;;12.50;85.35
12471;BME280;36499;46.484;13.832;2022-09-30T01:57:04;92089.56;;;12.41;86.03
12471;BME280;36499;46.484;13.832;2022-09-30T01:59:37;92085.06;;;12.63;84.98
12471;BME280;36499;46.484;13.832;2022-09-30T02:02:12;92088.13;;;12.23;87.15
12471;BME280;36499;46.484;13.832;2022-09-30T02:04:47;92086.78;;;12.21;87.03
12471;BME280;36499;46.484;13.832;2022-09-30T02:07:23;92088.34;;;12.22;87.69
12471;BME280;36499;46.484;13.832;2022-09-30T02:09:57;92088.06;;;12.18;87.73
12471;BME280;36499;46.484;13.832;2022-09-30T02:12:30;92093.28;;;12.18;87.74
12471;BME280;36499;46.484;13.832;2022-09-30T02:15:04;92095.38;;;12.16;88.07
12471;BME280;36499;46.484;13.832;2022-09-30T02:17:36;92093.78;;;12.15;87.64
12471;BME280;36499;46.484;13.832;2022-09-30T02:20:13;92094.78;;;12.09;87.90
12471;BME280;36499;46.484;13.832;2022-09-30T02:22:45;92091.38;;;12.09;87.67
12471;BME280;36499;46.484;13.832;2022-09-30T02:25:20;92090.09;;;12.11;87.65
12471;BME280;36499;46.484;13.832;2022-09-30T02:27:53;92095.06;;;12.13;87.52
12471;BME280;36499;46.484;13.832;2022-09-30T02:30:21;92085.88;;;12.10;87.54
12471;BME280;36499;46.484;13.832;2022-09-30T02:32:52;92085.88;;;12.10;87.84
12471;BME280;36499;46.484;13.832;2022-09-30T02:35:30;92093.25;;;12.13;87.81
12471;BME280;36499;46.484;13.832;2022-09-30T02:38:04;92084.34;;;12.14;88.02
12471;BME280;36499;46.484;13.832;2022-09-30T02:40:38;92090.16;;;12.16;87.84
12471;BME280;36499;46.484;13.832;2022-09-30T02:43:09;92094.56;;;12.16;88.23
12471;BME280;36499;46.484;13.832;2022-09-30T02:45:45;92101.91;;;12.19;88.11
12471;BME280;36499;46.484;13.832;2022-09-30T02:48:26;92110.53;;;12.19;88.46
12471;BME280;36499;46.484;13.832;2022-09-30T02:51:03;92116.56;;;12.20;88.23
12471;BME280;36499;46.484;13.832;2022-09-30T02:53:39;92126.22;;;12.19;88.27
12471;BME280;36499;46.484;13.832;2022-09-30T02:56:20;92133.53;;;12.17;88.19
12471;BME280;36499;46.484;13.832;2022-09-30T02:58:51;92135.59;;;12.15;88.14
12471;BME280;36499;46.484;13.832;2022-09-30T03:01:21;92133.75;;;12.16;88.21
12471;BME280;36499;46.484;13.832;2022-09-30T03:03:54;92140.81;;;12.15;88.51
12471;BME280;36499;46.484;13.832;2022-09-30T03:06:25;92140.28;;;12.13;88.25
12471;BME280;36499;46.484;13.832;2022-09-30T03:08:52;92142.41;;;12.16;88.30
12471;BME280;36499;46.484;13.832;2022-09-30T03:11:22;92143.72;;;12.19;88.53
12471;BME280;36499;46.484;13.832;2022-09-30T03:14:26;92140.81;;;12.15;88.34
12471;BME280;36499;46.484;13.832;2022-09-30T03:17:28;92149.97;;;12.18;88.39
12471;BME280;36499;46.484;13.832;2022-09-30T03:23:40;92167.72;;;12.16;88.11
12471;BME280;36499;46.484;13.832;2022-09-30T03:26:27;92166.94;;;12.15;88.13
12471;BME280;36499;46.484;13.832;2022-09-30T03:29:10;92178.19;;;12.16;88.46
12471;BME280;36499;46.484;13.832;2022-09-30T03:31:51;92178.19;;;12.16;88.38
12471;BME280;36499;46.484;13.832;2022-09-30T03:34:29;92177.38;;;12.15;88.21
12471;BME280;36499;46.484;13.832;2022-09-30T03:37:14;92183.19;;;12.17;88.44
12471;BME280;36499;46.484;13.832;2022-09-30T03:39:56;92184.75;;;12.18;88.67
12471;BME280;36499;46.484;13.832;2022-09-30T03:42:32;92186.81;;;12.16;88.36
12471;BME280;36499;46.484;13.832;2022-09-30T03:45:07;92191.78;;;12.18;88.42
12471;BME280;36499;46.484;13.832;2022-09-30T03:47:44;92193.63;;;12.17;88.63
12471;BME280;36499;46.484;13.832;2022-09-30T03:50:18;92195.75;;;12.20;88.72
12471;BME280;36499;46.484;13.832;2022-09-30T03:52:47;92202.00;;;12.19;88.90
12471;BME280;36499;46.484;13.832;2022-09-30T03:55:18;92198.38;;;12.20;88.79
12471;BME280;36499;46.484;13.832;2022-09-30T03:57:47;92208.31;;;12.23;88.84
12471;BME280;36499;46.484;13.832;2022-09-30T04:00:15;92203.16;;;12.28;88.60
12471;BME280;36499;46.484;13.832;2022-09-30T04:02:42;92205.78;;;12.28;88.90
12471;BME280;36499;46.484;13.832;2022-09-30T04:05:11;92202.91;;;12.30;88.83
12471;BME280;36499;46.484;13.832;2022-09-30T04:07:38;92208.69;;;12.32;88.48
12471;BME280;36499;46.484;13.832;2022-09-30T04:10:06;92212.34;;;12.31;88.44
12471;BME280;36499;46.484;13.832;2022-09-30T04:12:34;92227.78;;;12.32;88.58
12471;BME280;36499;46.484;13.832;2022-09-30T04:15:02;92229.59;;;12.32;88.67
12471;BME280;36499;46.484;13.832;2022-09-30T04:17:29;92237.19;;;12.33;88.63
12471;BME280;36499;46.484;13.832;2022-09-30T04:19:56;92232.16;;;12.27;88.48
12471;BME280;36499;46.484;13.832;2022-09-30T04:22:23;92231.84;;;12.23;88.62
12471;BME280;36499;46.484;13.832;2022-09-30T04:24:51;92242.81;;;12.25;88.55
12471;BME280;36499;46.484;13.832;2022-09-30T04:27:18;92244.69;;;12.25;88.64
12471;BME280;36499;46.484;13.832;2022-09-30T04:29:46;92249.56;;;12.21;88.92
12471;BME280;36499;46.484;13.832;2022-09-30T04:32:13;92253.53;;;12.24;88.97
12471;BME280;36499;46.484;13.832;2022-09-30T04:34:40;92248.06;;;12.25;88.96
12471;BME280;36499;46.484;13.832;2022-09-30T04:37:07;92247.03;;;12.26;89.14
12471;BME280;36499;46.484;13.832;2022-09-30T04:39:35;92247.03;;;12.26;89.04
12471;BME280;36499;46.484;13.832;2022-09-30T04:42:02;92250.22;;;12.28;88.91
12471;BME280;36499;46.484;13.832;2022-09-30T04:44:29;92247.91;;;12.32;88.90
12471;BME280;36499;46.484;13.832;2022-09-30T04:46:58;92259.69;;;12.34;88.57
12471;BME280;36499;46.484;13.832;2022-09-30T04:49:26;92257.78;;;12.30;88.96
12471;BME280;36499;46.484;13.832;2022-09-30T04:51:53;92263.31;;;12.33;88.78
12471;BME280;36499;46.484;13.832;2022-09-30T04:54:20;92264.38;;;12.32;88.70
12471;BME280;36499;46.484;13.832;2022-09-30T04:56:48;92266.41;;;12.30;88.72
12471;BME280;36499;46.484;13.832;2022-09-30T04:59:15;92260.16;;;12.31;89.13
12471;BME280;36499;46.484;13.832;2022-09-30T05:01:42;92275.66;;;12.38;88.59
12471;BME280;36499;46.484;13.832;2022-09-30T05:04:10;92275.16;;;12.41;88.47
12471;BME280;36499;46.484;13.832;2022-09-30T05:06:38;92281.19;;;12.41;88.24
12471;BME280;36499;46.484;13.832;2022-09-30T05:09:05;92284.06;;;12.40;88.31
12471;BME280;36499;46.484;13.832;2022-09-30T05:11:33;92285.88;;;12.39;88.42
12471;BME280;36499;46.484;13.832;2022-09-30T05:14:05;92298.28;;;12.49;90.18
12471;BME280;36499;46.484;13.832;2022-09-30T05:16:33;92285.69;;;12.68;90.91
12471;BME280;36499;46.484;13.832;2022-09-30T05:19:01;92288.28;;;12.89;90.24
12471;BME280;36499;46.484;13.832;2022-09-30T05:21:29;92288.44;;;13.05;88.79
12471;BME280;36499;46.484;13.832;2022-09-30T05:23:56;92289.88;;;13.17;87.75
12471;BME280;36499;46.484;13.832;2022-09-30T05:26:24;92295.03;;;13.34;85.94
12471;BME280;36499;46.484;13.832;2022-09-30T05:28:51;92299.03;;;13.41;85.37
12471;BME280;36499;46.484;13.832;2022-09-30T05:31:18;92307.84;;;13.35;84.88
12471;BME280;36499;46.484;13.832;2022-09-30T05:33:46;92309.66;;;13.30;84.59
12471;BME280;36499;46.484;13.832;2022-09-30T05:36:15;92312.34;;;13.40;84.27
12471;BME280;36499;46.484;13.832;2022-09-30T05:38:43;92314.38;;;13.33;83.65
12471;BME280;36499;46.484;13.832;2022-09-30T05:41:12;92310.59;;;13.19;83.59
12471;BME280;36499;46.484;13.832;2022-09-30T05:43:42;92311.03;;;13.11;83.74
12471;BME280;36499;46.484;13.832;2022-09-30T05:46:11;92312.00;;;13.05;84.06
12471;BME280;36499;46.484;13.832;2022-09-30T05:48:38;92312.38;;;12.91;83.93
12471;BME280;36499;46.484;13.832;2022-09-30T05:51:06;92329.06;;;12.85;84.29
12471;BME280;36499;46.484;13.832;2022-09-30T05:53:36;92325.03;;;12.78;84.60
12471;BME280;36499;46.484;13.832;2022-09-30T05:56:06;92332.09;;;12.77;84.66
12471;BME280;36499;46.484;13.832;2022-09-30T05:58:34;92337.69;;;12.64;85.28
12471;BME280;36499;46.484;13.832;2022-09-30T06:01:04;92337.94;;;12.63;85.68
12471;BME280;36499;46.484;13.832;2022-09-30T06:03:34;92348.63;;;12.61;86.27
12471;BME280;36499;46.484;13.832;2022-09-30T06:06:01;92349.44;;;12.62;86.61
12471;BME280;36499;46.484;13.832;2022-09-30T06:08:28;92351.63;;;12.70;86.33
12471;BME280;36499;46.484;13.832;2022-09-30T06:10:55;92351.13;;;12.73;86.21
12471;BME280;36499;46.484;13.832;2022-09-30T06:13:26;92350.03;;;12.69;86.72
12471;BME280;36499;46.484;13.832;2022-09-30T06:15:57;92347.66;;;12.67;86.60
12471;BME280;36499;46.484;13.832;2022-09-30T06:18:25;92350.81;;;12.69;86.80
12471;BME280;36499;46.484;13.832;2022-09-30T06:20:55;92356.34;;;12.73;86.70
12471;BME280;36499;46.484;13.832;2022-09-30T06:23:23;92355.88;;;12.76;86.64
12471;BME280;36499;46.484;13.832;2022-09-30T06:25:51;92366.31;;;12.76;86.76
12471;BME280;36499;46.484;13.832;2022-09-30T06:28:19;92366.91;;;12.78;86.90
12471;BME280;36499;46.484;13.832;2022-09-30T06:30:48;92372.66;;;12.80;86.63
12471;BME280;36499;46.484;13.832;2022-09-30T06:33:15;92369.81;;;12.81;86.52
12471;BME280;36499;46.484;13.832;2022-09-30T06:35:43;92379.22;;;12.82;87.02
12471;BME280;36499;46.484;13.832;2022-09-30T06:38:13;92383.03;;;12.75;87.45
12471;BME280;36499;46.484;13.832;2022-09-30T06:40:41;92375.84;;;12.82;87.13
12471;BME280;36499;46.484;13.832;2022-09-30T06:43:09;92379.53;;;12.86;86.96
12471;BME280;36499;46.484;13.832;2022-09-30T06:45:36;92384.81;;;12.91;86.77
12471;BME280;36499;46.484;13.832;2022-09-30T06:48:06;92388.00;;;12.93;86.69
12471;BME280;36499;46.484;13.832;2022-09-30T06:50:34;92388.00;;;12.93;86.94
12471;BME280;36499;46.484;13.832;2022-09-30T06:53:06;92393.47;;;12.91;86.28
12471;BME280;36499;46.484;13.832;2022-09-30T06:55:34;92396.56;;;12.88;85.86
12471;BME280;36499;46.484;13.832;2022-09-30T06:58:04;92396.81;;;12.87;85.96
12471;BME280;36499;46.484;13.832;2022-09-30T07:00:33;92406.97;;;12.83;86.11
12471;BME280;36499;46.484;13.832;2022-09-30T07:03:00;92415.59;;;12.84;85.89
12471;BME280;36499;46.484;13.832;2022-09-30T07:05:29;92422.16;;;12.86;86.09
12471;BME280;36499;46.484;13.832;2022-09-30T07:07:56;92426.69;;;12.91;86.21
12471;BME280;36499;46.484;13.832;2022-09-30T07:10:24;92419.13;;;12.94;86.38
12471;BME280;36499;46.484;13.832;2022-09-30T07:12:52;92416.28;;;12.96;86.33
12471;BME280;36499;46.484;13.832;2022-09-30T07:15:20;92429.38;;;12.96;86.28
12471;BME280;36499;46.484;13.832;2022-09-30T07:17:50;92435.41;;;12.96;85.92
12471;BME280;36499;46.484;13.832;2022-09-30T07:20:17;92437.75;;;12.98;85.77
12471;BME280;36499;46.484;13.832;2022-09-30T07:22:46;92438.38;;;13.05;85.29
12471;BME280;36499;46.484;13.832;2022-09-30T07:25:14;92436.84;;;13.09;85.40
12471;BME280;36499;46.484;13.832;2022-09-30T07:27:42;92449.22;;;13.14;85.29
12471;BME280;36499;46.484;13.832;2022-09-30T07:30:10;92447.41;;;13.14;85.46
12471;BME280;36499;46.484;13.832;2022-09-30T07:32:37;92449.03;;;13.20;85.34
12471;BME280;36499;46.484;13.832;2022-09-30T07:35:05;92456.78;;;13.32;85.42
12471;BME280;36499;46.484;13.832;2022-09-30T07:37:32;92458.97;;;13.40;85.18
12471;BME280;36499;46.484;13.832;2022-09-30T07:40:05;92460.84;;;13.44;85.27
12471;BME280;36499;46.484;13.832;2022-09-30T07:42:36;92457.81;;;13.53;85.23
12471;BME280;36499;46.484;13.832;2022-09-30T07:45:04;92464.66;;;13.59;85.30
12471;BME280;36499;46.484;13.832;2022-09-30T07:47:31;92468.38;;;13.63;85.31
12471;BME280;36499;46.484;13.832;2022-09-30T07:49:58;92472.41;;;13.70;84.99
12471;BME280;36499;46.484;13.832;2022-09-30T07:52:26;92466.91;;;13.72;84.70
12471;BME280;36499;46.484;13.832;2022-09-30T07:54:53;92466.97;;;13.77;84.71
12471;BME280;36499;46.484;13.832;2022-09-30T07:57:21;92466.47;;;13.80;84.93
12471;BME280;36499;46.484;13.832;2022-09-30T07:59:48;92477.56;;;13.87;84.79
12471;BME280;36499;46.484;13.832;2022-09-30T08:02:17;92478.69;;;13.96;84.65
12471;BME280;36499;46.484;13.832;2022-09-30T08:04:45;92469.09;;;14.07;84.98
12471;BME280;36499;46.484;13.832;2022-09-30T08:07:14;92473.09;;;14.14;84.29
12471;BME280;36499;46.484;13.832;2022-09-30T08:09:42;92485.25;;;14.25;83.64
12471;BME280;36499;46.484;13.832;2022-09-30T08:12:09;92489.50;;;14.31;83.69
12471;BME280;36499;46.484;13.832;2022-09-30T08:14:38;92498.25;;;14.42;83.17
12471;BME280;36499;46.484;13.832;2022-09-30T08:17:05;92508.50;;;14.44;82.43
12471;BME280;36499;46.484;13.832;2022-09-30T08:19:33;92505.13;;;14.48;82.13
12471;BME280;36499;46.484;13.832;2022-09-30T08:22:00;92510.13;;;14.50;82.35
12471;BME280;36499;46.484;13.832;2022-09-30T08:24:28;92515.19;;;14.56;82.34
12471;BME280;36499;46.484;13.832;2022-09-30T08:26:55;92516.00;;;14.62;82.39
12471;BME280;36499;46.484;13.832;2022-09-30T08:29:22;92509.50;;;14.69;82.09
12471;BME280;36499;46.484;13.832;2022-09-30T08:31:51;92515.03;;;14.73;82.19
12471;BME280;36499;46.484;13.832;2022-09-30T08:34:18;92516.38;;;14.80;82.15
12471;BME280;36499;46.484;13.832;2022-09-30T08:36:45;92514.09;;;14.89;82.11
12471;BME280;36499;46.484;13.832;2022-09-30T08:39:13;92524.53;;;14.79;81.75
12471;BME280;36499;46.484;13.832;2022-09-30T08:42:00;92521.41;;;14.82;81.98
12471;BME280;36499;46.484;13.832;2022-09-30T08:44:41;92524.88;;;14.87;81.83
12471;BME280;36499;46.484;13.832;2022-09-30T08:47:37;92521.19;;;14.88;81.01
12471;BME280;36499;46.484;13.832;2022-09-30T08:50:18;92526.22;;;14.95;81.27
12471;BME280;36499;46.484;13.832;2022-09-30T08:52:52;92530.69;;;14.95;81.11
12471;BME280;36499;46.484;13.832;2022-09-30T08:55:26;92527.28;;;14.99;81.13
12471;BME280;36499;46.484;13.832;2022-09-30T08:57:56;92531.22;;;14.97;80.65
12471;BME280;36499;46.484;13.832;2022-09-30T09:00:24;92528.34;;;15.03;80.43
12471;BME280;36499;46.484;13.832;2022-09-30T09:02:55;92528.41;;;15.08;80.92
12471;BME280;36499;46.484;13.832;2022-09-30T09:05:37;92533.13;;;15.06;82.39
12471;BME280;36499;46.484;13.832;2022-09-30T09:08:22;92537.91;;;15.19;82.53
12471;BME280;36499;46.484;13.832;2022-09-30T09:10:57;92533.75;;;15.23;82.34
12471;BME280;36499;46.484;13.832;2022-09-30T09:13:43;92541.16;;;15.31;81.91
12471;BME280;36499;46.484;13.832;2022-09-30T09:16:21;92555.59;;;15.34;81.74
12471;BME280;36499;46.484;13.832;2022-09-30T09:19:02;92565.25;;;15.23;81.65
12471;BME280;36499;46.484;13.832;2022-09-30T09:21:49;92557.63;;;15.22;80.90
12471;BME280;36499;46.484;13.832;2022-09-30T09:24:22;92553.72;;;15.24;81.62
12471;BME280;36499;46.484;13.832;2022-09-30T09:26:52;92557.44;;;15.33;82.24
12471;BME280;36499;46.484;13.832;2022-09-30T09:29:36;92554.03;;;15.38;81.16
12471;BME280;36499;46.484;13.832;2022-09-30T09:32:12;92563.28;;;15.41;81.63
12471;BME280;36499;46.484;13.832;2022-09-30T09:34:41;92571.63;;;15.32;80.91
12471;BME280;36499;46.484;13.832;2022-09-30T09:37:20;92585.84;;;15.36;80.82
12471;BME280;36499;46.484;13.832;2022-09-30T09:40:22;92575.81;;;15.33;80.39
12471;BME280;36499;46.484;13.832;2022-09-30T09:43:10;92570.41;;;15.08;81.37
12471;BME280;36499;46.484;13.832;2022-09-30T09:45:52;92576.31;;;15.30;80.87
12471;BME280;36499;46.484;13.832;2022-09-30T09:48:23;92576.03;;;15.27;80.86
12471;BME280;36499;46.484;13.832;2022-09-30T09:51:01;92576.88;;;15.32;80.29
12471;BME280;36499;46.484;13.832;2022-09-30T09:53:48;92585.06;;;15.41;80.20
12471;BME280;36499;46.484;13.832;2022-09-30T09:56:19;92587.97;;;15.45;80.44
12471;BME280;36499;46.484;13.832;2022-09-30T09:59:11;92588.19;;;15.38;80.41
12471;BME280;36499;46.484;13.832;2022-09-30T10:01:42;92588.88;;;15.23;80.37
12471;BME280;36499;46.484;13.832;2022-09-30T10:04:14;92597.50;;;15.14;81.20
12471;BME280;36499;46.484;13.832;2022-09-30T10:06:48;92600.88;;;15.09;81.80
12471;BME280;36499;46.484;13.832;2022-09-30T10:09:26;92594.59;;;15.15;81.67
12471;BME280;36499;46.484;13.832;2022-09-30T10:12:26;92596.19;;;15.16;82.35
12471;BME280;36499;46.484;13.832;2022-09-30T10:15:02;92588.59;;;15.20;82.65
12471;BME280;36499;46.484;13.832;2022-09-30T10:17:32;92588.97;;;15.38;82.60
12471;BME280;36499;46.484;13.832;2022-09-30T10:20:15;92594.28;;;15.49;82.13
12471;BME280;36499;46.484;13.832;2022-09-30T10:22:46;92596.91;;;15.49;82.32
12471;BME280;36499;46.484;13.832;2022-09-30T10:25:22;92604.50;;;15.45;81.18
12471;BME280;36499;46.484;13.832;2022-09-30T10:27:54;92599.25;;;15.03;82.11
12471;BME280;36499;46.484;13.832;2022-09-30T10:30:48;92603.00;;;15.12;82.42
12471;BME280;36499;46.484;13.832;2022-09-30T10:33:25;92607.72;;;15.10;81.93
12471;BME280;36499;46.484;13.832;2022-09-30T10:36:11;92608.78;;;15.14;82.05
12471;BME280;36499;46.484;13.832;2022-09-30T10:38:58;92602.41;;;15.05;81.57
12471;BME280;36499;46.484;13.832;2022-09-30T10:41:30;92614.75;;;15.05;81.78
12471;BME280;36499;46.484;13.832;2022-09-30T10:44:01;92621.25;;;14.97;82.21
12471;BME280;36499;46.484;13.832;2022-09-30T10:46:32;92628.75;;;14.83;82.74
12471;BME280;36499;46.484;13.832;2022-09-30T10:49:09;92628.16;;;14.76;82.17
12471;BME280;36499;46.484;13.832;2022-09-30T10:51:37;92630.44;;;14.68;82.97
12471;BME280;36499;46.484;13.832;2022-09-30T10:54:06;92628.34;;;14.70;82.15
12471;BME280;36499;46.484;13.832;2022-09-30T10:56:42;92639.72;;;14.75;81.80
12471;BME280;36499;46.484;13.832;2022-09-30T10:59:30;92634.50;;;14.54;82.69
12471;BME280;36499;46.484;13.832;2022-09-30T11:02:16;92641.19;;;14.66;82.30
12471;BME280;36499;46.484;13.832;2022-09-30T11:04:55;92643.38;;;14.74;81.91
12471;BME280;36499;46.484;13.832;2022-09-30T11:07:30;92645.44;;;14.72;81.84
12471;BME280;36499;46.484;13.832;2022-09-30T11:10:06;92650.38;;;14.69;81.88
12471;BME280;36499;46.484;13.832;2022-09-30T11:12:43;92659.03;;;14.43;83.25
12471;BME280;36499;46.484;13.832;2022-09-30T11:15:23;92659.41;;;14.51;83.29
12471;BME280;36499;46.484;13.832;2022-09-30T11:17:58;92666.22;;;14.52;83.41
12471;BME280;36499;46.484;13.832;2022-09-30T11:20:30;92671.53;;;14.35;84.33
12471;BME280;36499;46.484;13.832;2022-09-30T11:23:08;92674.31;;;14.46;83.78
12471;BME280;36499;46.484;13.832;2022-09-30T11:25:46;92684.66;;;14.35;84.89
12471;BME280;36499;46.484;13.832;2022-09-30T11:28:51;92678.28;;;14.31;85.04
12471;BME280;36499;46.484;13.832;2022-09-30T11:31:29;92684.66;;;14.35;84.87
12471;BME280;36499;46.484;13.832;2022-09-30T11:34:20;92687.88;;;14.43;84.77
12471;BME280;36499;46.484;13.832;2022-09-30T11:36:58;92686.91;;;14.49;84.87
12471;BME280;36499;46.484;13.832;2022-09-30T11:39:50;92688.19;;;14.46;84.47
12471;BME280;36499;46.484;13.832;2022-09-30T11:42:32;92693.09;;;14.37;85.12
12471;BME280;36499;46.484;13.832;2022-09-30T11:45:17;92700.84;;;14.49;84.43
12471;BME280;36499;46.484;13.832;2022-09-30T11:48:12;92694.06;;;14.53;84.58
12471;BME280;36499;46.484;13.832;2022-09-30T11:50:53;92698.31;;;14.59;84.64
12471;BME280;36499;46.484;13.832;2022-09-30T11:53:36;92689.88;;;14.57;84.85
12471;BME280;36499;46.484;13.832;2022-09-30T11:56:25;92708.56;;;14.61;84.43
12471;BME280;36499;46.484;13.832;2022-09-30T11:59:02;92707.19;;;14.53;84.22
12471;BME280;36499;46.484;13.832;2022-09-30T12:01:38;92709.31;;;14.56;83.92
12471;BME280;36499;46.484;13.832;2022-09-30T12:04:13;92720.59;;;14.57;84.14
12471;BME280;36499;46.484;13.832;2022-09-30T12:06:48;92720.53;;;14.52;84.52
12471;BME280;36499;46.484;13.832;2022-09-30T12:09:23;92723.50;;;14.38;84.25
12471;BME280;36499;46.484;13.832;2022-09-30T12:11:59;92728.69;;;14.33;84.58
12471;BME280;36499;46.484;13.832;2022-09-30T12:14:35;92728.22;;;14.36;84.59
12471;BME280;36499;46.484;13.832;2022-09-30T12:17:13;92721.94;;;14.37;84.98
12471;BME280;36499;46.484;13.832;2022-09-30T12:19:48;92729.63;;;14.27;85.29
12471;BME280;36499;46.484;13.832;2022-09-30T12:22:23;92728.91;;;14.32;85.38
12471;BME280;36499;46.484;13.832;2022-09-30T12:24:53;92725.03;;;14.34;85.70
12471;BME280;36499;46.484;13.832;2022-09-30T12:27:25;92722.25;;;14.41;85.34
12471;BME280;36499;46.484;13.832;2022-09-30T12:30:02;92711.03;;;14.46;85.17
12471;BME280;36499;46.484;13.832;2022-09-30T12:33:19;92706.81;;;14.45;85.52
12471;BME280;36499;46.484;13.832;2022-09-30T12:36:31;92709.06;;;14.36;85.99
12471;BME280;36499;46.484;13.832;2022-09-30T12:39:35;92710.56;;;14.32;86.39
12471;BME280;36499;46.484;13.832;2022-09-30T12:42:36;92710.25;;;14.28;86.34
12471;BME280;36499;46.484;13.832;2022-09-30T12:45:57;92721.66;;;14.17;86.66
12471;BME280;36499;46.484;13.832;2022-09-30T12:48:33;92707.75;;;14.17;86.07
12471;BME280;36499;46.484;13.832;2022-09-30T12:51:05;92712.81;;;14.23;85.73
12471;BME280;36499;46.484;13.832;2022-09-30T12:53:35;92708.34;;;14.24;85.98
12471;BME280;36499;46.484;13.832;2022-09-30T12:56:06;92699.69;;;14.23;86.42
12471;BME280;36499;46.484;13.832;2022-09-30T12:58:37;92707.84;;;14.27;86.26
12471;BME280;36499;46.484;13.832;2022-09-30T13:01:16;92710.56;;;14.32;85.78
12471;BME280;36499;46.484;13.832;2022-09-30T13:03:49;92706.78;;;14.23;86.44
12471;BME280;36499;46.484;13.832;2022-09-30T13:06:19;92708.03;;;14.20;87.07
12471;BME280;36499;46.484;13.832;2022-09-30T13:09:06;92714.53;;;14.34;86.42
12471;BME280;36499;46.484;13.832;2022-09-30T13:11:44;92725.25;;;14.33;86.60
12471;BME280;36499;46.484;13.832;2022-09-30T13:14:29;92725.91;;;14.40;86.27
12471;BME280;36499;46.484;13.832;2022-09-30T13:17:03;92724.56;;;14.37;85.17
12471;BME280;36499;46.484;13.832;2022-09-30T13:19:49;92723.50;;;14.38;84.83
12471;BME280;36499;46.484;13.832;2022-09-30T13:22:56;92723.44;;;14.33;84.46
12471;BME280;36499;46.484;13.832;2022-09-30T13:25:24;92721.38;;;14.35;84.49
12471;BME280;36499;46.484;13.832;2022-09-30T13:31:11;92728.22;;;14.36;85.08
12471;BME280;36499;46.484;13.832;2022-09-30T13:33:46;92725.81;;;14.35;85.35
12471;BME280;36499;46.484;13.832;2022-09-30T13:36:28;92726.13;;;14.38;85.39